Time;durP1;ratioP1;P1;durP2;ratioP2;P2;SDS_P1;SDS_P2;PMS_P1;PMS_P2;Temp;Humidity;BMP_temperature;BMP_pressure;BME280_temperature;BME280_humidity;BME280_pressure;Samples;Min_cycle;Max_cycle;Signal;HPM_P1;HPM_P2
2022/06/11 00:01:24;;;;;;;15.30;7.90;;;;;;;;;;4986319;28;20227;-60
2022/06/11 00:03:51;;;;;;;9.63;6.50;;;;;;;;;;5004244;28;20577;-60
2022/06/11 00:06:18;;;;;;;12.73;8.13;;;;;;;;;;5017773;28;20218;-60
2022/06/11 00:08:46;;;;;;;11.10;7.27;;;;;;;;;;5008743;28;20293;-61
2022/06/11 00:11:13;;;;;;;11.80;5.63;;;;;;;;;;4978140;28;20247;-60
2022/06/11 00:13:41;;;;;;;9.00;5.50;;;;;;;;;;4964061;28;20232;-60
2022/06/11 00:16:08;;;;;;;10.17;5.40;;;;;;;;;;4966841;28;20244;-60
2022/06/11 00:18:35;;;;;;;6.80;5.20;;;;;;;;;;4965867;28;20351;-60
2022/06/11 00:21:03;;;;;;;8.67;5.57;;;;;;;;;;4969357;28;20231;-61
2022/06/11 00:23:29;;;;;;;8.43;5.10;;;;;;;;;;4970540;28;20227;-60
2022/06/11 00:25:56;;;;;;;7.60;5.20;;;;;;;;;;4979822;28;20258;-60
2022/06/11 00:28:23;;;;;;;7.40;4.90;;;;;;;;;;4961479;28;20242;-60
2022/06/11 00:30:49;;;;;;;10.63;5.40;;;;;;;;;;4964404;28;20692;-60
2022/06/11 00:33:16;;;;;;;8.17;5.20;;;;;;;;;;4961581;28;20244;-60
2022/06/11 00:35:42;;;;;;;6.03;4.90;;;;;;;;;;4976707;28;20224;-60
2022/06/11 00:38:09;;;;;;;5.87;4.57;;;;;;;;;;4965794;28;20228;-60
2022/06/11 00:40:37;;;;;;;6.07;4.77;;;;;;;;;;4961739;28;20244;-61
2022/06/11 00:43:04;;;;;;;5.23;4.67;;;;;;;;;;4959516;28;20241;-60
2022/06/11 00:45:33;;;;;;;6.00;5.20;;;;;;;;;;4965197;28;20781;-60
2022/06/11 00:48:02;;;;;;;7.97;4.47;;;;;;;;;;4968916;28;20233;-62
2022/06/11 00:50:29;;;;;;;6.23;4.90;;;;;;;;;;4960739;28;20692;-60
2022/06/11 00:52:56;;;;;;;7.33;5.10;;;;;;;;;;4968030;28;20240;-60
2022/06/11 00:55:42;;;;;;;9.23;5.60;;;;;;;;;;4957109;28;20220;-60
2022/06/11 00:58:15;;;;;;;8.73;5.50;;;;;;;;;;4965132;28;20604;-60
2022/06/11 01:00:43;;;;;;;7.77;5.07;;;;;;;;;;4945927;28;20266;-61
2022/06/11 01:03:14;;;;;;;6.47;4.63;;;;;;;;;;4969792;28;20225;-60
2022/06/11 01:05:43;;;;;;;8.73;4.23;;;;;;;;;;4959573;28;20228;-60
2022/06/11 01:08:15;;;;;;;7.17;4.50;;;;;;;;;;4960187;28;20268;-61
2022/06/11 01:10:47;;;;;;;7.17;5.20;;;;;;;;;;4951363;28;20239;-60
2022/06/11 01:13:30;;;;;;;9.07;5.17;;;;;;;;;;4971176;28;20231;-60
2022/06/11 01:16:00;;;;;;;7.53;5.27;;;;;;;;;;4961558;28;20587;-59
2022/06/11 01:18:46;;;;;;;8.00;4.63;;;;;;;;;;4960465;28;20627;-60
2022/06/11 01:21:25;;;;;;;6.37;4.73;;;;;;;;;;4961280;28;20231;-60
2022/06/11 01:23:52;;;;;;;5.37;4.60;;;;;;;;;;4961872;28;20263;-60
2022/06/11 01:26:18;;;;;;;6.77;4.30;;;;;;;;;;4962037;28;20235;-60
2022/06/11 01:28:49;;;;;;;10.23;5.10;;;;;;;;;;4960615;28;20625;-60
2022/06/11 01:31:51;;;;;;;6.37;4.73;;;;;;;;;;4973950;28;20353;-60
2022/06/11 01:34:30;;;;;;;8.63;5.10;;;;;;;;;;4931382;28;21039;-60
2022/06/11 01:37:08;;;;;;;8.63;5.10;;;;;;;;;;4957004;28;20274;-60
2022/06/11 01:39:36;;;;;;;9.00;5.07;;;;;;;;;;4964484;28;20242;-60
2022/06/11 01:42:13;;;;;;;10.70;5.87;;;;;;;;;;4942756;28;20243;-63
2022/06/11 01:44:41;;;;;;;8.50;5.97;;;;;;;;;;4979377;28;20313;-60
2022/06/11 01:47:07;;;;;;;8.20;6.00;;;;;;;;;;4978369;28;20301;-60
2022/06/11 01:49:36;;;;;;;10.77;5.97;;;;;;;;;;4959947;28;20236;-60
2022/06/11 01:52:09;;;;;;;7.70;5.30;;;;;;;;;;4960608;28;20240;-61
2022/06/11 01:55:11;;;;;;;7.47;5.60;;;;;;;;;;4961951;28;20232;-60
2022/06/11 01:57:45;;;;;;;8.20;5.33;;;;;;;;;;4970648;28;20228;-60
2022/06/11 02:00:31;;;;;;;7.23;5.70;;;;;;;;;;4959768;28;20691;-60
2022/06/11 02:03:01;;;;;;;5.77;4.90;;;;;;;;;;4965992;28;20255;-62
2022/06/11 02:06:03;;;;;;;7.80;4.90;;;;;;;;;;4963177;28;20240;-64
2022/06/11 02:08:36;;;;;;;7.13;5.17;;;;;;;;;;4915255;28;20248;-60
2022/06/11 02:11:12;;;;;;;6.97;4.90;;;;;;;;;;4961919;28;20609;-60
2022/06/11 02:13:39;;;;;;;8.00;4.97;;;;;;;;;;4975983;28;20709;-60
2022/06/11 02:16:19;;;;;;;6.73;5.43;;;;;;;;;;4967455;28;20236;-60
2022/06/11 02:18:49;;;;;;;7.83;5.27;;;;;;;;;;4977348;28;20266;-60
2022/06/11 02:21:16;;;;;;;6.70;5.27;;;;;;;;;;4968302;28;20227;-60
2022/06/11 02:23:51;;;;;;;9.83;5.87;;;;;;;;;;4958926;28;20228;-60
2022/06/11 02:26:37;;;;;;;8.50;5.70;;;;;;;;;;4963362;28;20270;-60
2022/06/11 02:29:04;;;;;;;8.43;5.60;;;;;;;;;;4963283;28;21046;-60
2022/06/11 02:31:32;;;;;;;7.73;5.17;;;;;;;;;;4964479;28;20663;-60
2022/06/11 02:34:00;;;;;;;6.60;5.47;;;;;;;;;;4979172;28;20647;-60
2022/06/11 02:36:28;;;;;;;6.33;5.30;;;;;;;;;;4969938;28;32235;-60
2022/06/11 02:39:12;;;;;;;8.80;5.07;;;;;;;;;;4963675;28;20227;-60
2022/06/11 02:41:39;;;;;;;6.17;4.47;;;;;;;;;;4976599;28;20244;-60
2022/06/11 02:44:07;;;;;;;6.70;5.23;;;;;;;;;;4952731;28;20244;-60
2022/06/11 02:46:45;;;;;;;6.57;5.07;;;;;;;;;;4967404;28;20698;-60
2022/06/11 02:49:32;;;;;;;7.53;5.43;;;;;;;;;;4962370;28;20228;-60
2022/06/11 02:52:00;;;;;;;6.50;4.97;;;;;;;;;;4972476;28;20232;-61
2022/06/11 02:54:26;;;;;;;8.53;5.47;;;;;;;;;;4956468;28;20228;-60
2022/06/11 02:56:54;;;;;;;6.50;4.53;;;;;;;;;;4973507;28;20236;-60
2022/06/11 02:59:20;;;;;;;5.37;4.30;;;;;;;;;;4963626;28;20221;-60
2022/06/11 03:02:05;;;;;;;5.73;4.70;;;;;;;;;;4963203;28;20231;-60
2022/06/11 03:04:31;;;;;;;7.47;5.10;;;;;;;;;;4965339;28;20692;-60
2022/06/11 03:07:15;;;;;;;6.57;5.20;;;;;;;;;;4957477;28;20226;-60
2022/06/11 03:09:42;;;;;;;5.77;4.90;;;;;;;;;;4962788;28;20236;-60
2022/06/11 03:12:10;;;;;;;6.63;4.63;;;;;;;;;;4963837;28;20220;-61
2022/06/11 03:14:37;;;;;;;6.73;4.13;;;;;;;;;;4961413;28;20693;-60
2022/06/11 03:17:04;;;;;;;8.37;5.30;;;;;;;;;;4963820;28;20239;-60
2022/06/11 03:19:31;;;;;;;8.13;5.30;;;;;;;;;;4964614;28;20248;-60
2022/06/11 03:21:57;;;;;;;6.63;4.90;;;;;;;;;;4962669;28;20359;-60
2022/06/11 03:24:24;;;;;;;9.70;5.73;;;;;;;;;;4949193;28;416696;-60
2022/06/11 03:27:08;;;;;;;8.33;6.00;;;;;;;;;;4965120;28;20232;-63
2022/06/11 03:29:35;;;;;;;9.27;5.97;;;;;;;;;;4953188;28;21031;-60
2022/06/11 03:32:03;;;;;;;8.33;5.53;;;;;;;;;;4961964;28;20287;-65
2022/06/11 03:34:30;;;;;;;8.50;5.80;;;;;;;;;;4972116;28;20244;-60
2022/06/11 03:36:57;;;;;;;7.57;5.60;;;;;;;;;;4963407;28;20232;-60
2022/06/11 03:39:41;;;;;;;9.60;6.17;;;;;;;;;;4960175;28;20241;-60
2022/06/11 03:42:08;;;;;;;9.20;5.53;;;;;;;;;;4963975;28;20247;-60
2022/06/11 03:44:35;;;;;;;7.03;5.53;;;;;;;;;;4960039;28;20343;-61
2022/06/11 03:47:02;;;;;;;10.17;5.37;;;;;;;;;;4965134;28;20228;-60
2022/06/11 03:49:29;;;;;;;6.77;5.27;;;;;;;;;;4960343;28;20235;-60
2022/06/11 03:51:55;;;;;;;8.97;5.90;;;;;;;;;;4964774;28;20240;-60
2022/06/11 03:54:22;;;;;;;6.43;5.33;;;;;;;;;;4961792;28;20271;-60
2022/06/11 03:56:49;;;;;;;9.10;5.70;;;;;;;;;;4962212;28;20237;-60
2022/06/11 03:59:33;;;;;;;8.83;5.10;;;;;;;;;;4960051;28;20294;-60
2022/06/11 04:02:00;;;;;;;6.20;4.87;;;;;;;;;;4965789;28;20580;-60
2022/06/11 04:04:27;;;;;;;9.33;4.93;;;;;;;;;;4974380;28;20242;-61
2022/06/11 04:06:56;;;;;;;7.03;5.40;;;;;;;;;;4975650;28;20231;-60
2022/06/11 04:09:28;;;;;;;9.43;5.57;;;;;;;;;;4973696;28;20239;-60
2022/06/11 04:12:15;;;;;;;8.43;5.90;;;;;;;;;;4954252;28;20226;-62
2022/06/11 04:14:43;;;;;;;8.97;5.80;;;;;;;;;;4948929;28;20647;-62
2022/06/11 04:17:14;;;;;;;6.83;4.90;;;;;;;;;;4932984;28;20731;-62
2022/06/11 04:19:42;;;;;;;8.20;5.20;;;;;;;;;;4970182;28;20251;-61
2022/06/11 04:22:09;;;;;;;11.03;5.63;;;;;;;;;;4970932;28;20235;-62
2022/06/11 04:24:53;;;;;;;6.90;5.17;;;;;;;;;;4961360;28;20233;-62
2022/06/11 04:27:20;;;;;;;11.53;5.50;;;;;;;;;;4973105;28;20597;-62
2022/06/11 04:29:48;;;;;;;7.57;4.93;;;;;;;;;;4966191;28;20643;-61
2022/06/11 04:32:15;;;;;;;8.47;5.10;;;;;;;;;;4972224;28;21040;-62
2022/06/11 04:34:43;;;;;;;9.40;5.03;;;;;;;;;;4963392;28;20232;-61
2022/06/11 04:37:13;;;;;;;9.00;4.97;;;;;;;;;;4966568;28;20234;-61
2022/06/11 04:39:40;;;;;;;7.17;4.10;;;;;;;;;;4950097;28;20687;-61
2022/06/11 04:42:07;;;;;;;8.23;4.53;;;;;;;;;;4965913;28;20248;-61
2022/06/11 04:44:35;;;;;;;8.40;4.70;;;;;;;;;;4972399;28;20279;-61
2022/06/11 04:47:02;;;;;;;10.73;4.50;;;;;;;;;;4963859;28;20236;-61
2022/06/11 04:49:29;;;;;;;7.97;3.93;;;;;;;;;;4922230;28;29827;-61
2022/06/11 04:51:56;;;;;;;10.30;4.30;;;;;;;;;;4961836;28;67015;-61
2022/06/11 04:54:23;;;;;;;9.93;4.10;;;;;;;;;;4963161;28;20565;-62
2022/06/11 04:56:50;;;;;;;8.63;4.10;;;;;;;;;;4973180;28;20288;-64
2022/06/11 04:59:17;;;;;;;8.40;4.03;;;;;;;;;;4972820;28;20254;-60
2022/06/11 05:01:44;;;;;;;8.20;3.97;;;;;;;;;;4967436;28;20244;-61
2022/06/11 05:04:11;;;;;;;9.47;3.90;;;;;;;;;;4975361;28;20252;-61
2022/06/11 05:06:39;;;;;;;9.23;3.50;;;;;;;;;;4972476;28;20645;-62
2022/06/11 05:09:06;;;;;;;8.07;3.53;;;;;;;;;;4967062;28;20244;-61
2022/06/11 05:11:33;;;;;;;11.03;3.60;;;;;;;;;;4965910;28;20243;-62
2022/06/11 05:14:00;;;;;;;7.20;3.23;;;;;;;;;;4969747;28;20335;-62
2022/06/11 05:16:26;;;;;;;7.40;2.70;;;;;;;;;;4959078;28;20224;-62
2022/06/11 05:18:53;;;;;;;8.57;2.80;;;;;;;;;;4966350;28;20908;-61
2022/06/11 05:21:20;;;;;;;7.30;2.60;;;;;;;;;;4971563;28;20243;-61
2022/06/11 05:23:47;;;;;;;8.33;2.50;;;;;;;;;;4965475;28;20237;-61
2022/06/11 05:26:14;;;;;;;7.37;2.27;;;;;;;;;;4969910;28;20573;-62
2022/06/11 05:28:41;;;;;;;7.47;2.30;;;;;;;;;;4968608;28;21133;-65
2022/06/11 05:31:08;;;;;;;7.13;2.63;;;;;;;;;;4961359;28;20247;-62
2022/06/11 05:33:35;;;;;;;8.80;2.93;;;;;;;;;;4948314;28;20231;-62
2022/06/11 05:36:02;;;;;;;4.77;2.17;;;;;;;;;;4973464;28;20237;-61
2022/06/11 05:38:29;;;;;;;8.77;2.03;;;;;;;;;;4968365;28;20232;-62
2022/06/11 05:40:55;;;;;;;4.83;1.60;;;;;;;;;;4972272;28;20297;-61
2022/06/11 05:43:22;;;;;;;4.80;1.70;;;;;;;;;;4970586;28;20937;-61
2022/06/11 05:46:21;;;;;;;6.70;1.87;;;;;;;;;;4964953;28;20239;-61
2022/06/11 05:48:49;;;;;;;6.00;1.87;;;;;;;;;;4937577;28;20255;-62
2022/06/11 05:51:18;;;;;;;7.20;1.83;;;;;;;;;;4961857;28;20723;-67
2022/06/11 05:53:47;;;;;;;6.40;1.73;;;;;;;;;;4956550;28;20358;-63
2022/06/11 05:56:14;;;;;;;6.10;2.40;;;;;;;;;;4950132;28;20773;-62
2022/06/11 05:58:48;;;;;;;4.23;1.63;;;;;;;;;;4938929;28;20231;-62
2022/06/11 06:01:16;;;;;;;5.03;1.60;;;;;;;;;;4972589;28;20286;-62
2022/06/11 06:03:43;;;;;;;7.67;1.87;;;;;;;;;;4972849;28;20229;-62
2022/06/11 06:06:09;;;;;;;8.20;2.33;;;;;;;;;;4969971;28;20734;-62
2022/06/11 06:08:36;;;;;;;5.43;2.00;;;;;;;;;;4957924;28;21450;-62
2022/06/11 06:11:04;;;;;;;5.20;1.40;;;;;;;;;;4974988;28;20702;-62
2022/06/11 06:13:46;;;;;;;7.80;1.97;;;;;;;;;;4968180;28;20232;-62
2022/06/11 06:16:24;;;;;;;6.07;1.80;;;;;;;;;;4967844;28;20243;-61
2022/06/11 06:18:51;;;;;;;7.37;2.00;;;;;;;;;;4951755;28;20252;-61
2022/06/11 06:21:36;;;;;;;3.07;1.47;;;;;;;;;;4967550;28;20251;-62
2022/06/11 06:24:04;;;;;;;5.67;1.80;;;;;;;;;;4974301;28;20232;-62
2022/06/11 06:26:31;;;;;;;5.63;1.67;;;;;;;;;;4963066;28;20791;-62
2022/06/11 06:28:57;;;;;;;4.80;1.57;;;;;;;;;;4923562;28;20240;-63
2022/06/11 06:31:25;;;;;;;3.70;1.70;;;;;;;;;;4971607;28;20231;-62
2022/06/11 06:34:09;;;;;;;9.13;2.27;;;;;;;;;;4965792;28;20967;-62
2022/06/11 06:36:36;;;;;;;7.10;2.00;;;;;;;;;;4979923;28;20244;-62
2022/06/11 06:39:20;;;;;;;5.07;1.40;;;;;;;;;;4974888;28;20638;-61
2022/06/11 06:41:47;;;;;;;6.20;1.73;;;;;;;;;;4968379;28;20236;-63
2022/06/11 06:44:14;;;;;;;3.40;1.50;;;;;;;;;;4968809;28;20246;-63
2022/06/11 06:46:42;;;;;;;6.13;1.57;;;;;;;;;;4965248;28;20285;-62
2022/06/11 06:49:15;;;;;;;6.17;1.83;;;;;;;;;;4967528;28;20236;-63
2022/06/11 06:51:41;;;;;;;5.07;1.60;;;;;;;;;;4969513;28;20803;-62
2022/06/11 06:54:08;;;;;;;4.57;1.60;;;;;;;;;;4966279;28;20239;-62
2022/06/11 06:56:35;;;;;;;4.17;1.30;;;;;;;;;;4966727;28;20251;-63
2022/06/11 06:59:03;;;;;;;3.70;1.57;;;;;;;;;;4967132;28;20232;-64
2022/06/11 07:01:30;;;;;;;5.87;1.60;;;;;;;;;;4971633;28;20247;-62
2022/06/11 07:03:57;;;;;;;5.33;1.63;;;;;;;;;;4970033;28;20632;-62
2022/06/11 07:06:44;;;;;;;4.67;1.70;;;;;;;;;;4971083;28;20778;-63
2022/06/11 07:09:11;;;;;;;6.80;1.80;;;;;;;;;;4962152;28;20224;-61
2022/06/11 07:11:55;;;;;;;4.53;1.67;;;;;;;;;;4965131;28;20300;-62
2022/06/11 07:14:22;;;;;;;5.17;1.40;;;;;;;;;;4966310;28;20228;-61
2022/06/11 07:16:49;;;;;;;5.93;1.30;;;;;;;;;;4953462;28;20239;-61
2022/06/11 07:19:17;;;;;;;4.93;1.50;;;;;;;;;;4956097;28;20232;-62
2022/06/11 07:21:45;;;;;;;4.37;1.40;;;;;;;;;;4951882;28;20237;-62
2022/06/11 07:24:15;;;;;;;4.80;1.63;;;;;;;;;;4976845;28;20244;-62
2022/06/11 07:26:43;;;;;;;6.27;1.50;;;;;;;;;;4965170;28;20332;-62
2022/06/11 07:29:10;;;;;;;4.97;1.60;;;;;;;;;;4934876;28;20236;-62
2022/06/11 07:31:38;;;;;;;5.77;1.70;;;;;;;;;;4935019;28;20233;-63
2022/06/11 07:34:05;;;;;;;3.93;1.27;;;;;;;;;;4964048;28;20311;-62
2022/06/11 07:36:32;;;;;;;4.93;1.70;;;;;;;;;;4966860;28;20233;-62
2022/06/11 07:38:58;;;;;;;5.13;1.73;;;;;;;;;;4955699;28;20226;-63
2022/06/11 07:41:25;;;;;;;3.67;1.53;;;;;;;;;;4973428;28;20308;-62
2022/06/11 07:43:52;;;;;;;5.53;1.77;;;;;;;;;;4964119;28;20627;-62
2022/06/11 07:46:19;;;;;;;5.17;1.97;;;;;;;;;;4971414;28;20235;-62
2022/06/11 07:48:46;;;;;;;7.57;1.90;;;;;;;;;;4965514;28;20256;-62
2022/06/11 07:51:12;;;;;;;5.00;1.60;;;;;;;;;;4962985;28;20369;-62
2022/06/11 07:53:40;;;;;;;3.93;1.70;;;;;;;;;;4972726;28;20287;-62
2022/06/11 07:56:06;;;;;;;5.23;1.63;;;;;;;;;;4964335;28;20242;-62
2022/06/11 07:58:33;;;;;;;5.67;1.60;;;;;;;;;;4968591;28;20235;-61
2022/06/11 08:01:00;;;;;;;4.33;1.80;;;;;;;;;;4976289;28;20224;-62
2022/06/11 08:03:31;;;;;;;6.60;1.93;;;;;;;;;;4946407;28;20235;-63
2022/06/11 08:06:02;;;;;;;6.93;2.00;;;;;;;;;;4961700;28;20979;-63
2022/06/11 08:08:29;;;;;;;4.23;1.57;;;;;;;;;;4960833;28;20319;-63
2022/06/11 08:10:57;;;;;;;5.53;1.90;;;;;;;;;;4963359;28;20656;-62
2022/06/11 08:13:25;;;;;;;5.23;1.60;;;;;;;;;;4988878;28;20699;-62
2022/06/11 08:16:10;;;;;;;3.97;1.60;;;;;;;;;;4968961;28;20224;-62
2022/06/11 08:18:38;;;;;;;5.47;1.60;;;;;;;;;;4987186;28;20244;-62
2022/06/11 08:21:04;;;;;;;7.03;2.03;;;;;;;;;;4967796;28;32022;-73
2022/06/11 08:23:31;;;;;;;4.03;1.60;;;;;;;;;;4975691;28;20591;-66
2022/06/11 08:25:58;;;;;;;6.10;1.80;;;;;;;;;;4966631;28;20229;-67
2022/06/11 08:28:42;;;;;;;4.47;1.70;;;;;;;;;;4968509;28;20628;-66
2022/06/11 08:31:09;;;;;;;5.10;1.90;;;;;;;;;;4972390;28;20639;-66
2022/06/11 08:33:36;;;;;;;5.00;1.67;;;;;;;;;;4973820;28;26780;-67
2022/06/11 08:36:10;;;;;;;4.67;1.67;;;;;;;;;;4968388;28;20232;-67
2022/06/11 08:38:37;;;;;;;5.33;1.70;;;;;;;;;;4969868;28;20238;-68
2022/06/11 08:41:08;;;;;;;5.53;1.63;;;;;;;;;;4961600;28;20236;-67
2022/06/11 08:43:38;;;;;;;4.50;1.80;;;;;;;;;;4935792;28;20228;-67
2022/06/11 08:46:08;;;;;;;4.93;1.90;;;;;;;;;;4958062;28;20331;-65
2022/06/11 08:48:42;;;;;;;4.60;1.80;;;;;;;;;;4967415;28;20220;-54
2022/06/11 08:51:09;;;;;;;4.30;1.80;;;;;;;;;;4970998;28;20232;-54
2022/06/11 08:53:36;;;;;;;4.07;1.73;;;;;;;;;;4965457;28;20232;-53
2022/06/11 08:56:03;;;;;;;4.17;1.73;;;;;;;;;;4970626;28;20703;-57
2022/06/11 08:58:52;;;;;;;6.87;2.00;;;;;;;;;;4937963;28;20220;-56
2022/06/11 09:01:29;;;;;;;8.23;2.20;;;;;;;;;;4955210;28;20230;-55
2022/06/11 09:03:56;;;;;;;7.47;1.80;;;;;;;;;;4957890;28;23637;-53
2022/06/11 09:06:31;;;;;;;6.40;1.93;;;;;;;;;;4972059;28;20663;-52
2022/06/11 09:09:01;;;;;;;7.50;2.00;;;;;;;;;;4947717;28;20232;-57
2022/06/11 09:11:42;;;;;;;5.07;1.80;;;;;;;;;;4950248;28;20235;-52
2022/06/11 09:14:27;;;;;;;7.40;1.80;;;;;;;;;;4953850;28;20226;-53
2022/06/11 09:17:00;;;;;;;4.93;1.70;;;;;;;;;;4976816;28;20234;-53
2022/06/11 09:19:26;;;;;;;3.00;1.47;;;;;;;;;;4966723;28;20366;-54
2022/06/11 09:22:07;;;;;;;3.50;1.70;;;;;;;;;;4977345;28;20243;-51
2022/06/11 09:24:37;;;;;;;4.17;1.60;;;;;;;;;;4963844;28;20232;-50
2022/06/11 09:27:10;;;;;;;24.57;2.50;;;;;;;;;;4964432;28;20231;-54
2022/06/11 09:29:49;;;;;;;4.57;1.60;;;;;;;;;;4963606;28;20236;-50
2022/06/11 09:32:22;;;;;;;3.17;1.50;;;;;;;;;;4957429;28;20236;-53
2022/06/11 09:35:11;;;;;;;5.07;1.83;;;;;;;;;;4964229;28;20232;-54
2022/06/11 09:37:41;;;;;;;3.23;1.30;;;;;;;;;;4964225;28;20224;-54
2022/06/11 09:40:27;;;;;;;5.33;1.47;;;;;;;;;;4966158;28;20346;-52
2022/06/11 09:43:29;;;;;;;5.53;1.57;;;;;;;;;;4965022;28;20238;-50
2022/06/11 09:46:11;;;;;;;3.83;1.50;;;;;;;;;;4897669;29;20881;-53
2022/06/11 09:48:44;;;;;;;6.03;1.60;;;;;;;;;;4970363;28;20240;-52
2022/06/11 09:51:31;;;;;;;4.50;1.50;;;;;;;;;;4970774;28;20625;-51
2022/06/11 09:54:20;;;;;;;5.43;1.80;;;;;;;;;;4954582;28;20688;-50
2022/06/11 09:57:05;;;;;;;5.03;1.33;;;;;;;;;;4973470;28;20327;-53
2022/06/11 09:59:38;;;;;;;2.63;1.33;;;;;;;;;;4963117;28;20234;-54
2022/06/11 10:02:36;;;;;;;3.37;1.40;;;;;;;;;;4965039;28;20224;-54
2022/06/11 10:05:07;;;;;;;3.60;1.40;;;;;;;;;;4970083;28;20602;-54
2022/06/11 10:07:40;;;;;;;4.17;1.13;;;;;;;;;;5002365;28;20389;-54
2022/06/11 10:10:25;;;;;;;4.53;1.50;;;;;;;;;;5002470;28;21165;-51
2022/06/11 10:12:53;;;;;;;3.30;1.30;;;;;;;;;;4976727;28;20241;-53
2022/06/11 10:15:21;;;;;;;3.53;1.43;;;;;;;;;;4971487;28;20703;-53
2022/06/11 10:17:59;;;;;;;3.23;1.30;;;;;;;;;;4950316;28;20224;-55
2022/06/11 10:20:26;;;;;;;6.87;1.67;;;;;;;;;;4949608;28;20240;-55
2022/06/11 10:22:52;;;;;;;7.40;1.50;;;;;;;;;;4961076;28;20224;-54
2022/06/11 10:25:23;;;;;;;3.80;1.60;;;;;;;;;;4962410;28;20642;-52
2022/06/11 10:27:56;;;;;;;4.23;1.50;;;;;;;;;;4959599;28;20225;-53
2022/06/11 10:30:34;;;;;;;3.93;1.13;;;;;;;;;;4950360;28;21000;-53
2022/06/11 10:33:25;;;;;;;4.83;1.90;;;;;;;;;;4948455;28;20229;-55
2022/06/11 10:35:54;;;;;;;5.37;1.97;;;;;;;;;;4956367;28;20228;-54
2022/06/11 10:38:34;;;;;;;3.77;1.10;;;;;;;;;;4953269;28;20232;-52
2022/06/11 10:41:00;;;;;;;2.17;0.93;;;;;;;;;;4962484;28;20227;-55
2022/06/11 10:43:33;;;;;;;15.23;2.20;;;;;;;;;;4986502;28;20234;-55
2022/06/11 10:46:00;;;;;;;5.27;1.27;;;;;;;;;;4983416;28;20227;-54
2022/06/11 10:48:28;;;;;;;4.23;1.50;;;;;;;;;;4969863;28;20233;-52
2022/06/11 10:50:55;;;;;;;4.90;1.50;;;;;;;;;;4969912;28;20229;-55
2022/06/11 10:53:45;;;;;;;2.53;1.10;;;;;;;;;;4969340;28;20241;-50
2022/06/11 10:56:21;;;;;;;1.93;0.80;;;;;;;;;;4956685;28;20283;-53
2022/06/11 10:59:05;;;;;;;3.37;1.20;;;;;;;;;;4978160;28;20239;-53
2022/06/11 11:02:10;;;;;;;6.90;1.00;;;;;;;;;;4969995;28;20263;-53
2022/06/11 11:04:52;;;;;;;8.03;1.33;;;;;;;;;;4972108;28;20291;-55
2022/06/11 11:07:20;;;;;;;3.17;1.00;;;;;;;;;;4969733;28;20363;-52
2022/06/11 11:09:47;;;;;;;3.40;1.20;;;;;;;;;;4965762;28;20240;-52
2022/06/11 11:12:18;;;;;;;3.77;1.20;;;;;;;;;;4979483;28;20315;-50
2022/06/11 11:14:45;;;;;;;4.03;1.10;;;;;;;;;;4970709;28;20229;-52
2022/06/11 11:17:14;;;;;;;2.30;1.03;;;;;;;;;;4979018;28;20225;-49
2022/06/11 11:19:42;;;;;;;10.90;1.47;;;;;;;;;;5002972;28;20285;-54
2022/06/11 11:22:10;;;;;;;6.07;1.30;;;;;;;;;;4971547;28;20247;-56
2022/06/11 11:24:43;;;;;;;20.20;2.17;;;;;;;;;;4977455;28;20256;-54
2022/06/11 11:27:17;;;;;;;2.90;1.20;;;;;;;;;;4975362;28;20235;-54
2022/06/11 11:29:56;;;;;;;5.70;1.53;;;;;;;;;;4946914;28;20238;-53
2022/06/11 11:32:43;;;;;;;3.83;1.40;;;;;;;;;;4970962;28;20371;-52
2022/06/11 11:35:17;;;;;;;5.77;1.50;;;;;;;;;;4972911;28;20766;-53
2022/06/11 11:37:44;;;;;;;3.40;1.37;;;;;;;;;;4974479;28;20315;-51
2022/06/11 11:40:25;;;;;;;3.53;1.13;;;;;;;;;;4965661;28;20272;-59
2022/06/11 11:42:54;;;;;;;4.87;1.37;;;;;;;;;;4949916;28;20679;-51
2022/06/11 11:45:25;;;;;;;4.90;1.30;;;;;;;;;;4965745;28;20219;-52
2022/06/11 11:48:03;;;;;;;3.50;1.30;;;;;;;;;;4971728;28;20362;-54
2022/06/11 11:50:38;;;;;;;2.90;1.33;;;;;;;;;;4968851;28;20687;-53
2022/06/11 11:53:10;;;;;;;1.50;1.20;;;;;;;;;;4953657;28;20243;-53
2022/06/11 11:55:39;;;;;;;2.43;1.20;;;;;;;;;;4958100;28;20696;-51
2022/06/11 11:58:06;;;;;;;5.17;1.20;;;;;;;;;;4972091;28;20754;-53
2022/06/11 12:00:54;;;;;;;12.27;1.50;;;;;;;;;;4958161;28;20300;-53
2022/06/11 12:03:22;;;;;;;8.30;1.27;;;;;;;;;;4953149;28;21110;-53
2022/06/11 12:05:51;;;;;;;6.77;1.27;;;;;;;;;;4949398;28;20307;-53
2022/06/11 12:08:25;;;;;;;2.00;0.97;;;;;;;;;;4967241;28;20613;-53
2022/06/11 12:10:52;;;;;;;7.10;1.33;;;;;;;;;;4966113;28;20242;-54
2022/06/11 12:13:45;;;;;;;6.90;1.57;;;;;;;;;;4972753;28;21046;-54
2022/06/11 12:16:25;;;;;;;3.43;1.00;;;;;;;;;;4972672;28;20359;-53
2022/06/11 12:18:53;;;;;;;3.40;1.30;;;;;;;;;;4960319;28;20315;-55
2022/06/11 12:21:38;;;;;;;1.77;1.00;;;;;;;;;;4966148;28;20244;-55
2022/06/11 12:24:13;;;;;;;2.57;1.13;;;;;;;;;;4966564;28;20232;-66
2022/06/11 12:26:41;;;;;;;16.43;1.60;;;;;;;;;;4936279;28;20240;-66
2022/06/11 12:29:14;;;;;;;5.90;1.13;;;;;;;;;;4950315;28;20239;-65
2022/06/11 12:32:00;;;;;;;3.20;1.17;;;;;;;;;;4939058;28;20228;-66
2022/06/11 12:34:27;;;;;;;2.60;1.17;;;;;;;;;;4955916;28;20228;-66
2022/06/11 12:37:15;;;;;;;5.17;1.20;;;;;;;;;;4956324;28;20237;-66
2022/06/11 12:39:48;;;;;;;3.00;1.03;;;;;;;;;;4957559;28;220228;-66
2022/06/11 12:42:18;;;;;;;3.13;1.13;;;;;;;;;;4956584;28;20936;-65
2022/06/11 12:44:50;;;;;;;1.60;1.10;;;;;;;;;;4970253;28;20228;-67
2022/06/11 12:47:24;;;;;;;1.80;1.10;;;;;;;;;;4952287;28;20236;-66
2022/06/11 12:50:02;;;;;;;2.27;1.20;;;;;;;;;;4954653;28;20232;-68
2022/06/11 12:52:50;;;;;;;2.50;1.00;;;;;;;;;;4950064;28;216125;-67
2022/06/11 12:55:36;;;;;;;2.03;1.13;;;;;;;;;;4966461;28;20707;-67
2022/06/11 12:58:03;;;;;;;3.23;1.30;;;;;;;;;;4980458;28;22488;-67
2022/06/11 13:00:50;;;;;;;5.30;1.40;;;;;;;;;;4917905;28;219964;-67
2022/06/11 13:03:23;;;;;;;3.03;1.20;;;;;;;;;;4922732;28;217517;-67
2022/06/11 13:06:14;;;;;;;2.93;1.37;;;;;;;;;;4943464;28;20222;-67
2022/06/11 13:09:11;;;;;;;2.17;1.17;;;;;;;;;;4965502;28;20232;-67
2022/06/11 13:11:45;;;;;;;4.63;1.60;;;;;;;;;;4894256;28;21074;-66
2022/06/11 13:14:22;;;;;;;2.53;1.20;;;;;;;;;;4843912;28;1675184;-67
2022/06/11 13:17:10;;;;;;;3.43;1.30;;;;;;;;;;4903571;28;218826;-67
2022/06/11 13:19:41;;;;;;;5.60;1.73;;;;;;;;;;4950884;28;20256;-67
2022/06/11 13:22:20;;;;;;;2.00;1.23;;;;;;;;;;4740259;28;5091155;-66
2022/06/11 13:24:51;;;;;;;4.03;1.60;;;;;;;;;;4955956;28;20267;-67
2022/06/11 13:27:31;;;;;;;3.23;1.37;;;;;;;;;;4900967;28;221853;-66
2022/06/11 13:29:59;;;;;;;2.80;1.30;;;;;;;;;;4934090;28;20380;-68
2022/06/11 13:33:02;;;;;;;4.07;1.30;;;;;;;;;;4967311;28;20232;-66
2022/06/11 13:35:38;;;;;;;2.70;1.50;;;;;;;;;;4895393;29;20238;-66
2022/06/11 13:38:13;;;;;;;1.67;1.30;;;;;;;;;;4938233;28;20360;-66
2022/06/11 13:40:54;;;;;;;3.13;1.40;;;;;;;;;;4891962;28;218297;-66
2022/06/11 13:43:25;;;;;;;3.00;1.70;;;;;;;;;;4952896;28;20244;-66
2022/06/11 13:46:15;;;;;;;2.03;1.10;;;;;;;;;;4950505;28;20277;-65
2022/06/11 13:48:51;;;;;;;7.83;1.70;;;;;;;;;;4965788;28;20236;-66
2022/06/11 13:51:19;;;;;;;4.97;1.73;;;;;;;;;;4981311;28;20231;-68
2022/06/11 13:57:08;;;;;;;3.47;1.37;;;;;;;;;;4934402;28;20280;-66
2022/06/11 13:59:47;;;;;;;3.83;1.50;;;;;;;;;;4957381;28;20334;-66
2022/06/11 14:02:24;;;;;;;3.17;1.43;;;;;;;;;;4960794;28;20223;-66
2022/06/11 14:04:51;;;;;;;4.10;1.53;;;;;;;;;;4944636;28;25058;-66
2022/06/11 14:07:35;;;;;;;3.13;1.60;;;;;;;;;;4952770;28;20929;-64
2022/06/11 14:10:30;;;;;;;2.53;1.40;;;;;;;;;;4967089;28;20227;-65
2022/06/11 14:13:21;;;;;;;6.27;2.30;;;;;;;;;;4966309;28;20236;-65
2022/06/11 14:15:49;;;;;;;6.27;1.80;;;;;;;;;;4978670;28;20246;-64
2022/06/11 14:18:25;;;;;;;8.20;2.00;;;;;;;;;;4971547;28;20243;-65
2022/06/11 14:20:58;;;;;;;4.80;1.80;;;;;;;;;;4949337;28;20232;-65
2022/06/11 14:23:26;;;;;;;4.77;1.90;;;;;;;;;;4963387;28;20272;-66
2022/06/11 14:26:01;;;;;;;4.43;1.40;;;;;;;;;;4965390;28;20239;-64
2022/06/11 14:28:38;;;;;;;1.87;1.40;;;;;;;;;;4969835;28;20255;-64
2022/06/11 14:31:05;;;;;;;5.67;1.70;;;;;;;;;;4950108;28;20285;-64
2022/06/11 14:33:32;;;;;;;1.83;1.30;;;;;;;;;;4964307;28;24732;-64
2022/06/11 14:36:00;;;;;;;2.50;1.60;;;;;;;;;;4951301;28;20371;-64
2022/06/11 14:38:30;;;;;;;2.90;1.50;;;;;;;;;;4966899;28;20240;-64
2022/06/11 14:41:09;;;;;;;3.57;1.60;;;;;;;;;;4949446;28;20273;-64
2022/06/11 14:44:06;;;;;;;7.23;2.33;;;;;;;;;;4963522;28;20240;-64
2022/06/11 14:46:36;;;;;;;4.70;1.60;;;;;;;;;;4952612;28;20323;-64
2022/06/11 14:49:03;;;;;;;4.70;1.73;;;;;;;;;;4964412;28;20297;-64
2022/06/11 14:51:31;;;;;;;6.03;2.00;;;;;;;;;;4969854;28;20706;-64
2022/06/11 14:54:03;;;;;;;5.43;1.90;;;;;;;;;;4950284;28;20222;-64
2022/06/11 14:56:36;;;;;;;4.83;1.80;;;;;;;;;;4964631;28;20226;-64
2022/06/11 14:59:14;;;;;;;5.13;1.90;;;;;;;;;;4970830;28;20247;-64
2022/06/11 15:01:41;;;;;;;6.53;2.40;;;;;;;;;;4967001;28;20354;-64
2022/06/11 15:04:20;;;;;;;5.33;1.97;;;;;;;;;;4975152;28;20749;-64
2022/06/11 15:06:50;;;;;;;5.40;2.57;;;;;;;;;;4951243;28;20668;-64
2022/06/11 15:09:26;;;;;;;5.57;1.90;;;;;;;;;;4971413;28;20757;-64
2022/06/11 15:12:01;;;;;;;6.37;2.30;;;;;;;;;;4963446;28;20698;-64
2022/06/11 15:14:34;;;;;;;6.30;2.20;;;;;;;;;;4964393;28;20286;-65
2022/06/11 15:17:12;;;;;;;8.10;2.57;;;;;;;;;;4961678;28;20936;-64